Aleppo, Pennsylvania
Current Conditions -  °F | °C
As of 2:55 PM on Tuesday 21 Oct 2014 (Local Time) from KAFJ Reporting Station
Overcast Overcast  
Wind Chill: 54°   Ceiling: 7000
Heat Index: 54°   Visibility: 10mi
Dew Point: 46°   Wind: 9mph
Humidity: 77%   Direction: 320°NW
Pressure: 29.91"   Gusts: NA
Location:  39.82°N, 80.45°W
Report Text: KAFJ 211855Z AUTO 32008KT 10SM FEW019 OVC070 12/08 A2991 RMK AO1
Loading
Personal Weather Stations






























Interactive Weather Map New forecast layout! Learn more

10-Day Weather Forecast

Advertisements
Track Severe Weather on mobile